Open Full Screen Window  High Contrast Mode
Wind Gusting 00 knots
05
October 24, 2014 11:03 AM CDT
Weather Information
Wind Direction
  230 °
Wind Speed
  05 kt (6 mph)
Wind Gust
  00 kt (0 mph)
Altimeter
30.11 in
Visibility
7 SM
Temperature
15° C
59° F
Dewpoint
06° C
43° F
Humidity
55%
Sky Condition
Clear
VFR

METAR KAXV 241603Z AUTO 23005KT 7SM CLR 15/06 A3011 RMK AO2

*Background is not an actual portrayal of the airport.